Time;durP1;ratioP1;P1;durP2;ratioP2;P2;SDS_P1;SDS_P2;PMS_P1;PMS_P2;Temp;Humidity;BMP_temperature;BMP_pressure;BME280_temperature;BME280_humidity;BME280_pressure;Samples;Min_cycle;Max_cycle;Signal;HPM_P1;HPM_P2
2021/11/20 00:02:18;;;;;;;8.67;1.63;;;12.70;99.90;;;;;;5087787;28;20618;-71
2021/11/20 00:04:47;;;;;;;6.60;1.67;;;12.70;99.90;;;;;;5108671;28;20544;-71
2021/11/20 00:07:14;;;;;;;5.43;1.47;;;12.70;99.90;;;;;;5109542;28;20262;-70
2021/11/20 00:09:42;;;;;;;4.30;1.47;;;12.70;99.90;;;;;;5108141;28;20188;-71
2021/11/20 00:12:16;;;;;;;4.50;1.50;;;12.70;99.90;;;;;;5109008;28;20289;-71
2021/11/20 00:14:45;;;;;;;3.77;1.73;;;12.60;99.90;;;;;;5086895;28;20343;-71
2021/11/20 00:17:14;;;;;;;2.63;1.53;;;12.60;99.90;;;;;;5088917;28;20678;-71
2021/11/20 00:19:41;;;;;;;8.03;1.80;;;12.60;99.90;;;;;;5106214;28;20285;-70
2021/11/20 00:22:11;;;;;;;5.83;1.90;;;12.60;99.90;;;;;;5085295;28;20200;-71
2021/11/20 00:24:43;;;;;;;2.50;1.00;;;12.60;99.90;;;;;;5108949;28;20200;-70
2021/11/20 00:27:16;;;;;;;8.60;1.70;;;12.60;99.90;;;;;;5092637;27;20310;-71
2021/11/20 00:29:47;;;;;;;3.40;1.27;;;12.50;99.90;;;;;;5088746;28;20240;-70
2021/11/20 00:32:18;;;;;;;2.53;1.53;;;12.60;99.90;;;;;;5089329;28;20207;-71
2021/11/20 00:34:47;;;;;;;3.87;1.47;;;12.50;99.90;;;;;;5089657;28;20792;-70
2021/11/20 00:37:15;;;;;;;7.47;1.53;;;12.50;99.90;;;;;;5090742;28;20266;-71
2021/11/20 00:39:43;;;;;;;5.17;1.93;;;12.50;99.90;;;;;;5110724;28;20237;-70
2021/11/20 00:42:12;;;;;;;7.80;2.30;;;12.40;99.90;;;;;;5090109;28;20605;-70
2021/11/20 00:44:39;;;;;;;6.47;1.60;;;12.40;99.90;;;;;;5087051;28;20214;-70
2021/11/20 00:47:08;;;;;;;4.03;1.60;;;12.40;99.90;;;;;;5089987;28;20196;-70
2021/11/20 00:49:35;;;;;;;3.63;1.40;;;12.40;99.90;;;;;;5087656;28;20204;-70
2021/11/20 00:52:03;;;;;;;3.43;1.50;;;12.40;99.90;;;;;;5089627;28;20225;-71
2021/11/20 00:54:31;;;;;;;3.97;1.80;;;12.40;99.90;;;;;;5086968;28;20216;-70
2021/11/20 00:56:58;;;;;;;4.90;1.67;;;12.30;99.90;;;;;;5088410;28;20245;-70
2021/11/20 00:59:25;;;;;;;5.20;1.87;;;12.30;99.90;;;;;;5085346;28;20609;-70
2021/11/20 01:01:54;;;;;;;4.10;1.67;;;12.30;99.90;;;;;;5085076;28;20287;-70
2021/11/20 01:04:26;;;;;;;11.07;2.37;;;12.30;99.90;;;;;;5084928;28;20295;-70
2021/11/20 01:06:55;;;;;;;6.93;2.23;;;12.20;99.90;;;;;;5087295;28;20205;-70
2021/11/20 01:09:25;;;;;;;5.90;2.00;;;12.20;99.90;;;;;;5084757;28;20934;-70
2021/11/20 01:11:56;;;;;;;4.83;1.70;;;12.20;99.90;;;;;;5087454;28;20199;-71
2021/11/20 01:14:25;;;;;;;5.47;1.87;;;12.10;99.90;;;;;;5109241;28;20284;-70
2021/11/20 01:16:54;;;;;;;7.63;1.57;;;12.10;99.90;;;;;;5105396;28;20238;-70
2021/11/20 01:19:24;;;;;;;8.70;2.13;;;12.10;99.90;;;;;;5082038;28;20563;-70
2021/11/20 01:22:09;;;;;;;8.17;2.13;;;12.10;99.90;;;;;;5104211;28;20199;-70
2021/11/20 01:24:57;;;;;;;6.87;2.00;;;12.00;99.90;;;;;;5005682;28;20215;-70
2021/11/20 01:27:39;;;;;;;10.27;2.60;;;12.00;99.90;;;;;;4985009;28;20211;-71
2021/11/20 01:30:43;;;;;;;6.90;2.37;;;12.00;99.90;;;;;;4990305;28;20215;-70
2021/11/20 01:33:12;;;;;;;8.40;2.13;;;11.90;99.90;;;;;;4994398;28;20219;-71
2021/11/20 01:35:41;;;;;;;6.40;1.57;;;11.90;99.90;;;;;;5008123;28;20242;-71
2021/11/20 01:38:14;;;;;;;8.13;1.97;;;11.90;99.90;;;;;;5008400;28;20199;-70
2021/11/20 01:40:45;;;;;;;7.27;2.10;;;11.90;99.90;;;;;;5001965;28;20225;-71
2021/11/20 01:43:21;;;;;;;11.10;2.47;;;11.80;99.90;;;;;;5008265;28;20681;-70
2021/11/20 01:45:56;;;;;;;9.00;2.47;;;11.90;99.90;;;;;;5007805;28;20203;-70
2021/11/20 01:48:50;;;;;;;6.03;1.80;;;11.80;99.90;;;;;;4992202;28;20301;-70
2021/11/20 01:51:23;;;;;;;6.23;1.90;;;11.80;99.90;;;;;;4991684;28;20710;-70
2021/11/20 01:53:56;;;;;;;13.50;2.63;;;11.70;99.90;;;;;;4992341;28;20254;-71
2021/11/20 01:56:28;;;;;;;9.10;2.37;;;11.70;99.90;;;;;;5005301;28;20250;-71
2021/11/20 01:59:04;;;;;;;10.00;2.27;;;11.70;99.90;;;;;;5007491;28;20212;-71
2021/11/20 02:02:02;;;;;;;7.30;1.90;;;11.70;99.90;;;;;;5046440;28;20611;-70
2021/11/20 02:05:00;;;;;;;5.07;1.70;;;11.70;99.90;;;;;;5087424;28;20240;-71
2021/11/20 02:07:37;;;;;;;3.90;1.23;;;11.70;99.90;;;;;;5086210;28;20210;-70
2021/11/20 02:10:11;;;;;;;11.03;2.50;;;11.70;99.90;;;;;;5080782;28;20699;-70
2021/11/20 02:12:52;;;;;;;9.03;2.70;;;11.60;99.90;;;;;;5089490;28;20262;-71
2021/11/20 02:15:22;;;;;;;12.77;2.97;;;11.60;99.90;;;;;;5092024;28;20242;-70
2021/11/20 02:17:55;;;;;;;8.50;2.50;;;11.60;99.90;;;;;;5064224;28;20229;-70
2021/11/20 02:20:41;;;;;;;10.33;2.20;;;11.60;99.90;;;;;;5051291;28;20226;-71
2021/11/20 02:23:16;;;;;;;9.00;2.17;;;11.50;99.90;;;;;;5066717;28;20612;-70
2021/11/20 02:25:43;;;;;;;7.93;2.30;;;11.50;99.90;;;;;;5055195;28;20306;-70
2021/11/20 02:28:39;;;;;;;11.33;2.50;;;11.50;99.90;;;;;;5027627;28;20821;-70
2021/11/20 02:31:20;;;;;;;9.77;2.27;;;11.50;99.90;;;;;;5011523;28;20225;-70
2021/11/20 02:33:50;;;;;;;6.70;2.10;;;11.50;99.90;;;;;;5003435;28;20221;-70
2021/11/20 02:36:21;;;;;;;4.17;1.60;;;11.20;99.90;;;;;;5020647;28;20305;-70
2021/11/20 02:38:57;;;;;;;6.90;2.30;;;11.50;99.90;;;;;;5010319;28;20310;-70
2021/11/20 02:41:25;;;;;;;6.73;1.90;;;11.40;99.90;;;;;;5005198;28;20579;-70
2021/11/20 02:43:56;;;;;;;5.13;1.83;;;11.50;99.90;;;;;;5026054;28;20199;-70
2021/11/20 02:46:29;;;;;;;4.37;1.80;;;11.50;99.90;;;;;;5010580;28;20225;-70
2021/11/20 02:49:00;;;;;;;6.30;1.60;;;11.50;99.90;;;;;;5010398;28;20192;-70
2021/11/20 02:51:30;;;;;;;7.03;2.07;;;11.50;99.90;;;;;;5009253;28;20209;-69
2021/11/20 02:54:00;;;;;;;4.07;1.70;;;11.50;99.90;;;;;;5010534;28;20343;-70
2021/11/20 02:56:31;;;;;;;4.30;1.50;;;11.50;99.90;;;;;;5010632;28;20207;-69
2021/11/20 02:58:59;;;;;;;4.23;1.57;;;11.50;99.90;;;;;;5009136;28;20212;-69
2021/11/20 03:01:35;;;;;;;6.90;2.33;;;11.50;99.90;;;;;;5026556;28;20532;-69
2021/11/20 03:04:03;;;;;;;5.80;2.00;;;11.50;99.90;;;;;;5010628;28;20213;-69
2021/11/20 03:06:33;;;;;;;11.13;2.20;;;11.40;99.90;;;;;;5046356;28;20197;-70
2021/11/20 03:09:00;;;;;;;13.30;3.23;;;11.40;99.90;;;;;;5052054;28;20204;-70
2021/11/20 03:11:28;;;;;;;7.80;2.37;;;11.40;99.90;;;;;;5063405;28;20659;-69
2021/11/20 03:13:57;;;;;;;7.37;1.90;;;11.40;99.90;;;;;;5055531;28;20302;-69
2021/11/20 03:16:39;;;;;;;9.33;2.37;;;11.40;99.90;;;;;;5074978;28;20714;-70
2021/11/20 03:19:07;;;;;;;9.23;2.30;;;11.40;99.90;;;;;;5082249;28;20215;-69
2021/11/20 03:21:37;;;;;;;11.87;3.00;;;11.40;99.90;;;;;;5087498;28;20198;-70
2021/11/20 03:24:07;;;;;;;4.83;1.70;;;11.30;99.90;;;;;;5083174;28;20197;-70
2021/11/20 03:26:34;;;;;;;9.77;2.37;;;11.30;99.90;;;;;;5075088;28;20205;-70
2021/11/20 03:29:02;;;;;;;9.47;2.53;;;11.30;99.90;;;;;;5107098;27;20210;-70
2021/11/20 03:31:30;;;;;;;12.93;2.50;;;11.30;99.90;;;;;;5086842;28;20210;-70
2021/11/20 03:33:59;;;;;;;10.10;2.20;;;11.30;99.90;;;;;;5087779;28;20311;-71
2021/11/20 03:36:26;;;;;;;12.73;2.50;;;11.30;99.90;;;;;;5087873;28;20675;-71
2021/11/20 03:38:57;;;;;;;8.80;2.40;;;11.30;99.90;;;;;;5075225;28;20300;-70
2021/11/20 03:41:24;;;;;;;7.60;2.30;;;11.30;99.90;;;;;;5087065;28;20212;-71
2021/11/20 03:43:51;;;;;;;7.47;2.17;;;11.30;99.90;;;;;;5086886;28;20205;-70
2021/11/20 03:46:19;;;;;;;6.50;2.23;;;11.20;99.90;;;;;;5085628;28;20610;-70
2021/11/20 03:48:46;;;;;;;11.23;2.67;;;11.20;99.90;;;;;;5087852;28;20712;-70
2021/11/20 03:51:15;;;;;;;15.00;3.07;;;11.20;99.90;;;;;;5086064;28;20279;-70
2021/11/20 03:53:43;;;;;;;7.57;2.07;;;11.20;99.90;;;;;;5087405;28;20206;-70
2021/11/20 03:56:10;;;;;;;7.23;1.90;;;11.20;99.90;;;;;;5086618;28;20202;-71
2021/11/20 03:58:38;;;;;;;9.20;2.40;;;11.10;99.90;;;;;;5089612;28;20192;-69
2021/11/20 04:01:09;;;;;;;6.07;2.10;;;11.20;99.90;;;;;;5088367;28;20317;-69
2021/11/20 04:03:39;;;;;;;10.27;2.27;;;11.10;99.90;;;;;;5087265;28;20287;-69
2021/11/20 04:06:12;;;;;;;9.97;2.23;;;11.10;99.90;;;;;;5081989;28;20200;-70
2021/11/20 04:08:41;;;;;;;8.20;2.50;;;11.10;99.90;;;;;;5084781;28;20296;-70
2021/11/20 04:11:18;;;;;;;8.00;2.27;;;11.10;99.90;;;;;;5080272;28;20285;-70
2021/11/20 04:13:46;;;;;;;4.20;1.40;;;11.10;99.90;;;;;;5082050;28;20208;-69
2021/11/20 04:16:17;;;;;;;7.50;2.07;;;11.10;99.90;;;;;;5069889;28;20237;-69
2021/11/20 04:18:45;;;;;;;5.77;2.53;;;11.00;99.90;;;;;;5047482;28;20210;-70
2021/11/20 04:21:13;;;;;;;11.07;2.57;;;11.10;99.90;;;;;;5047231;28;20200;-70
2021/11/20 04:23:45;;;;;;;5.03;1.80;;;11.00;99.90;;;;;;5047227;28;20214;-70
2021/11/20 04:26:14;;;;;;;6.30;2.20;;;11.00;99.90;;;;;;5055968;28;20237;-70
2021/11/20 04:28:41;;;;;;;6.13;2.50;;;11.00;99.90;;;;;;5046621;28;20225;-70
2021/11/20 04:31:19;;;;;;;7.00;2.27;;;11.00;99.90;;;;;;5046771;28;20712;-70
2021/11/20 04:33:47;;;;;;;10.47;2.30;;;11.00;99.90;;;;;;5051243;28;20537;-70
2021/11/20 04:36:15;;;;;;;7.57;2.00;;;11.00;99.90;;;;;;5047332;28;20673;-70
2021/11/20 04:38:44;;;;;;;7.10;2.30;;;10.90;99.90;;;;;;5046596;28;20301;-69
2021/11/20 04:41:13;;;;;;;4.93;2.03;;;10.90;99.90;;;;;;5052805;28;20245;-70
2021/11/20 04:43:42;;;;;;;4.23;1.70;;;11.00;99.90;;;;;;5050433;28;20203;-69
2021/11/20 04:46:10;;;;;;;6.90;1.60;;;10.90;99.90;;;;;;5065569;28;20521;-69
2021/11/20 04:48:37;;;;;;;9.03;2.40;;;10.90;99.90;;;;;;5055547;28;20293;-69
2021/11/20 04:51:04;;;;;;;9.43;2.23;;;10.90;99.90;;;;;;5069884;28;20198;-69
2021/11/20 04:53:36;;;;;;;9.27;2.27;;;10.90;99.90;;;;;;5078198;28;20624;-70
2021/11/20 04:56:09;;;;;;;8.97;2.40;;;10.90;99.90;;;;;;5051517;28;20235;-69
2021/11/20 04:58:37;;;;;;;7.37;2.03;;;10.90;99.90;;;;;;5046878;28;20207;-70
2021/11/20 05:01:07;;;;;;;12.13;2.40;;;10.80;99.90;;;;;;5046960;28;20201;-69
2021/11/20 05:03:40;;;;;;;7.57;2.37;;;10.80;99.90;;;;;;5050337;28;20205;-69
2021/11/20 05:06:08;;;;;;;9.87;2.43;;;10.80;99.90;;;;;;5063977;28;20206;-70
2021/11/20 05:08:36;;;;;;;8.70;2.00;;;10.70;99.90;;;;;;5070447;28;20665;-70
2021/11/20 05:11:08;;;;;;;8.93;2.20;;;10.80;99.90;;;;;;5054482;28;20661;-70
2021/11/20 05:13:45;;;;;;;7.77;2.10;;;10.80;99.90;;;;;;5068297;28;20268;-70
2021/11/20 05:16:14;;;;;;;5.80;1.73;;;10.70;99.90;;;;;;5059015;28;20228;-70
2021/11/20 05:18:42;;;;;;;10.37;2.17;;;10.70;99.90;;;;;;5084655;28;20189;-70
2021/11/20 05:21:13;;;;;;;9.43;1.80;;;10.70;99.90;;;;;;5089948;28;20204;-70
2021/11/20 05:23:46;;;;;;;9.33;2.93;;;10.70;99.90;;;;;;5088666;28;20208;-70
2021/11/20 05:26:16;;;;;;;5.47;2.10;;;10.70;99.90;;;;;;5089387;28;20957;-70
2021/11/20 05:28:57;;;;;;;8.70;2.00;;;10.70;99.90;;;;;;5090129;28;20210;-70
2021/11/20 05:31:24;;;;;;;6.67;1.67;;;10.70;99.90;;;;;;5087160;28;20304;-70
2021/11/20 05:33:56;;;;;;;7.50;2.00;;;10.70;99.90;;;;;;5084094;28;21000;-70
2021/11/20 05:36:26;;;;;;;5.03;1.80;;;10.70;99.90;;;;;;5090667;28;20232;-70
2021/11/20 05:38:54;;;;;;;4.37;1.80;;;10.70;99.90;;;;;;5089811;28;20225;-70
2021/11/20 05:41:23;;;;;;;13.90;2.73;;;10.60;99.90;;;;;;5088873;28;20207;-70
2021/11/20 05:43:50;;;;;;;8.00;2.20;;;10.60;99.90;;;;;;5088826;28;20206;-70
2021/11/20 05:46:30;;;;;;;4.50;1.60;;;10.60;99.90;;;;;;5087577;28;20704;-70
2021/11/20 05:48:58;;;;;;;2.97;1.20;;;10.60;99.90;;;;;;5089027;28;20208;-70
2021/11/20 05:51:25;;;;;;;6.20;1.60;;;10.60;99.90;;;;;;5089466;28;20197;-70
2021/11/20 05:53:53;;;;;;;16.00;2.77;;;10.60;99.90;;;;;;5089645;28;20257;-70
2021/11/20 05:56:20;;;;;;;6.10;2.10;;;10.60;99.90;;;;;;5089770;28;20232;-70
2021/11/20 05:58:51;;;;;;;5.77;1.70;;;10.60;99.90;;;;;;5088516;28;20205;-70
2021/11/20 06:01:21;;;;;;;10.00;2.40;;;10.60;99.90;;;;;;5089354;28;20203;-70
2021/11/20 06:03:49;;;;;;;10.10;1.97;;;10.60;99.90;;;;;;5087030;28;20258;-70
2021/11/20 06:06:17;;;;;;;7.03;1.73;;;10.60;99.90;;;;;;5085464;28;20289;-70
2021/11/20 06:08:44;;;;;;;9.07;1.90;;;10.60;99.90;;;;;;5089762;28;20203;-70
2021/11/20 06:11:12;;;;;;;5.63;1.57;;;10.60;99.90;;;;;;5089111;28;20299;-70
2021/11/20 06:13:42;;;;;;;13.47;2.67;;;10.60;99.90;;;;;;5088793;28;20205;-70
2021/11/20 06:16:29;;;;;;;6.13;1.87;;;10.60;99.90;;;;;;5104150;27;20240;-69
2021/11/20 06:18:56;;;;;;;4.03;1.53;;;10.50;99.90;;;;;;5087983;28;20291;-69
2021/11/20 06:21:25;;;;;;;6.67;1.77;;;10.60;99.90;;;;;;5088195;28;20200;-69
2021/11/20 06:23:52;;;;;;;6.43;1.73;;;10.60;99.90;;;;;;5088631;28;20200;-70
2021/11/20 06:26:20;;;;;;;13.83;2.23;;;10.60;99.90;;;;;;5088862;28;20609;-70
2021/11/20 06:28:50;;;;;;;7.80;1.90;;;10.50;99.90;;;;;;5088422;28;20206;-69
2021/11/20 06:31:22;;;;;;;4.67;1.60;;;10.50;99.90;;;;;;5089150;28;20201;-70
2021/11/20 06:34:07;;;;;;;4.13;1.40;;;10.60;99.90;;;;;;5073342;28;20252;-70
2021/11/20 06:36:49;;;;;;;6.43;1.73;;;10.50;99.90;;;;;;5090038;28;20699;-70
2021/11/20 06:39:31;;;;;;;4.70;1.53;;;10.60;99.90;;;;;;5087774;28;20699;-70
2021/11/20 06:42:03;;;;;;;6.23;1.90;;;10.60;99.90;;;;;;5088446;28;20259;-70
2021/11/20 06:44:30;;;;;;;4.57;1.60;;;10.60;99.90;;;;;;5084493;28;20287;-69
2021/11/20 06:46:58;;;;;;;3.80;1.30;;;10.60;99.90;;;;;;5118585;27;20224;-69
2021/11/20 06:49:27;;;;;;;4.00;1.33;;;10.60;99.90;;;;;;5089194;28;20258;-69
2021/11/20 06:51:57;;;;;;;3.50;1.50;;;10.70;99.90;;;;;;5085416;28;20228;-69
2021/11/20 06:54:42;;;;;;;10.67;2.20;;;10.70;99.90;;;;;;5085944;28;20300;-69
2021/11/20 06:57:52;;;;;;;5.33;1.73;;;10.70;99.90;;;;;;5020877;28;20216;-69
2021/11/20 07:00:31;;;;;;;3.90;1.30;;;10.70;99.90;;;;;;5017696;28;20557;-69
2021/11/20 07:03:19;;;;;;;5.27;1.83;;;10.80;99.90;;;;;;5008857;28;20695;-69
2021/11/20 07:06:00;;;;;;;5.77;1.60;;;10.30;99.90;;;;;;5010181;28;20207;-69
2021/11/20 07:08:28;;;;;;;10.73;2.50;;;10.80;99.90;;;;;;5027289;28;20428;-70
2021/11/20 07:10:57;;;;;;;5.57;1.60;;;10.80;99.90;;;;;;4996629;28;20688;-69
2021/11/20 07:13:25;;;;;;;6.60;1.60;;;10.90;99.90;;;;;;5010256;28;20210;-70
2021/11/20 07:15:53;;;;;;;6.30;1.83;;;10.90;99.90;;;;;;5026004;28;20247;-69
2021/11/20 07:18:22;;;;;;;3.97;1.40;;;11.00;99.90;;;;;;5007618;28;20202;-69
2021/11/20 07:20:50;;;;;;;9.73;2.27;;;11.10;99.90;;;;;;5026303;28;20226;-70
2021/11/20 07:23:37;;;;;;;13.57;2.93;;;11.20;99.90;;;;;;5027203;28;20248;-70
2021/11/20 07:26:07;;;;;;;3.43;1.53;;;11.30;99.90;;;;;;5009415;28;20566;-70
2021/11/20 07:28:34;;;;;;;11.93;2.23;;;11.40;99.90;;;;;;5009027;28;20324;-70
2021/11/20 07:31:02;;;;;;;5.27;1.53;;;11.50;99.90;;;;;;5018719;28;21015;-70
2021/11/20 07:33:32;;;;;;;3.77;1.70;;;11.70;99.90;;;;;;5080495;28;20206;-70
2021/11/20 07:36:01;;;;;;;6.87;1.50;;;12.00;99.90;;;;;;5067294;28;20721;-70
2021/11/20 07:38:32;;;;;;;5.43;1.80;;;12.10;99.90;;;;;;5087949;28;20277;-70
2021/11/20 07:41:02;;;;;;;4.73;1.40;;;12.10;99.90;;;;;;5087482;28;20302;-70
2021/11/20 07:43:32;;;;;;;6.40;1.93;;;12.30;99.90;;;;;;5076276;28;20209;-70
2021/11/20 07:46:00;;;;;;;6.97;2.50;;;12.30;99.90;;;;;;5073862;28;20201;-70
2021/11/20 07:48:30;;;;;;;4.20;1.50;;;12.40;99.90;;;;;;5085410;28;20838;-70
2021/11/20 07:51:00;;;;;;;3.90;1.50;;;12.50;99.90;;;;;;5086472;28;20935;-70
2021/11/20 07:53:40;;;;;;;2.80;1.37;;;12.70;99.90;;;;;;5085925;28;20879;-70
2021/11/20 07:56:11;;;;;;;5.87;1.67;;;12.90;99.90;;;;;;5077542;28;20232;-70
2021/11/20 07:58:40;;;;;;;6.27;2.10;;;13.10;99.90;;;;;;5080661;28;20205;-71
2021/11/20 08:01:09;;;;;;;4.30;1.50;;;13.20;99.90;;;;;;5068521;28;20205;-71
2021/11/20 08:03:39;;;;;;;3.60;1.23;;;13.30;99.90;;;;;;5084473;28;20200;-71
2021/11/20 08:06:20;;;;;;;5.67;1.77;;;13.40;99.90;;;;;;5086061;28;20257;-71
2021/11/20 08:09:03;;;;;;;6.83;1.80;;;13.50;99.90;;;;;;5086119;28;20332;-70
2021/11/20 08:11:45;;;;;;;3.40;1.37;;;13.50;99.90;;;;;;5081158;28;20208;-71
2021/11/20 08:14:14;;;;;;;6.60;1.93;;;13.60;99.90;;;;;;5077479;28;20578;-71
2021/11/20 08:17:04;;;;;;;6.90;1.90;;;13.50;99.90;;;;;;5045963;28;20222;-71
2021/11/20 08:19:55;;;;;;;4.23;1.70;;;13.60;99.90;;;;;;5028748;28;20966;-71
2021/11/20 08:22:42;;;;;;;4.63;2.03;;;13.60;99.90;;;;;;5045690;28;20206;-71
2021/11/20 08:25:19;;;;;;;3.17;1.47;;;13.70;99.90;;;;;;5028575;28;20292;-71
2021/11/20 08:27:47;;;;;;;7.13;2.10;;;13.70;99.90;;;;;;5026328;28;20293;-71
2021/11/20 08:30:22;;;;;;;5.37;1.73;;;13.90;99.90;;;;;;5061781;28;20210;-71
2021/11/20 08:32:54;;;;;;;8.17;2.20;;;13.90;99.90;;;;;;5028775;28;20198;-70
2021/11/20 08:35:42;;;;;;;4.03;1.80;;;14.00;99.90;;;;;;5024832;28;20231;-70
2021/11/20 08:38:22;;;;;;;3.43;1.80;;;14.20;99.90;;;;;;5029406;28;20233;-71
2021/11/20 08:40:55;;;;;;;8.90;1.80;;;14.30;99.90;;;;;;5025840;28;20216;-71
2021/11/20 08:43:28;;;;;;;4.83;1.60;;;14.20;99.90;;;;;;5025563;28;20208;-71
2021/11/20 08:46:02;;;;;;;5.67;1.73;;;14.10;99.90;;;;;;5056626;28;20206;-71
2021/11/20 08:48:29;;;;;;;5.53;1.57;;;14.10;99.90;;;;;;5050581;28;20389;-71
2021/11/20 08:50:59;;;;;;;12.37;2.17;;;14.10;99.90;;;;;;5028820;28;20211;-71
2021/11/20 08:53:27;;;;;;;6.90;2.20;;;14.20;99.90;;;;;;5036659;28;20699;-71
2021/11/20 08:55:55;;;;;;;3.43;1.40;;;14.30;99.90;;;;;;5086291;28;20601;-71
2021/11/20 08:58:44;;;;;;;5.37;1.90;;;14.30;99.90;;;;;;5086316;28;20202;-71
2021/11/20 09:01:24;;;;;;;7.23;2.10;;;14.30;99.90;;;;;;5086643;28;20517;-71
2021/11/20 09:04:02;;;;;;;5.07;1.70;;;14.30;99.90;;;;;;5085256;28;20215;-71
2021/11/20 09:06:37;;;;;;;5.53;2.20;;;14.40;99.90;;;;;;5084509;28;20212;-71
2021/11/20 09:09:10;;;;;;;5.50;2.03;;;14.50;99.90;;;;;;5076768;28;20302;-71
2021/11/20 09:11:41;;;;;;;2.70;1.60;;;14.50;99.90;;;;;;5087183;28;20203;-71
2021/11/20 09:14:14;;;;;;;8.50;2.17;;;14.60;99.90;;;;;;5085611;28;20264;-71
2021/11/20 09:16:58;;;;;;;3.97;1.83;;;14.70;99.90;;;;;;5107104;28;20248;-71
2021/11/20 09:19:26;;;;;;;5.80;1.90;;;14.60;99.90;;;;;;5086373;28;20256;-71
2021/11/20 09:21:53;;;;;;;3.83;1.60;;;14.70;99.90;;;;;;5086308;28;20202;-71
2021/11/20 09:24:38;;;;;;;9.37;2.30;;;14.80;99.90;;;;;;5085322;28;20204;-71
2021/11/20 09:27:23;;;;;;;6.27;2.03;;;14.90;99.90;;;;;;5110934;27;20285;-71
2021/11/20 09:29:52;;;;;;;5.60;2.00;;;14.90;99.90;;;;;;5084251;28;20207;-71
2021/11/20 09:32:19;;;;;;;5.30;1.90;;;14.90;99.90;;;;;;5084197;28;20276;-71
2021/11/20 09:34:47;;;;;;;8.23;2.03;;;14.90;99.90;;;;;;5105585;28;20684;-71
2021/11/20 09:37:41;;;;;;;6.43;1.90;;;14.90;99.90;;;;;;5071208;28;20766;-71
2021/11/20 09:40:18;;;;;;;6.47;1.60;;;15.00;99.90;;;;;;5081548;28;20199;-71
2021/11/20 09:42:49;;;;;;;4.43;1.77;;;15.10;99.90;;;;;;5082372;28;20874;-71
2021/11/20 09:45:21;;;;;;;6.30;2.20;;;15.10;99.90;;;;;;5081589;28;20192;-71
2021/11/20 09:48:00;;;;;;;5.07;1.90;;;15.00;99.90;;;;;;5083259;28;20303;-71
2021/11/20 09:50:32;;;;;;;5.57;2.27;;;15.10;99.90;;;;;;5084795;28;20204;-71
2021/11/20 09:53:02;;;;;;;3.13;1.50;;;15.10;99.90;;;;;;5084080;28;20208;-71
2021/11/20 09:55:35;;;;;;;6.47;1.90;;;15.20;99.90;;;;;;5086172;28;20201;-71
2021/11/20 09:58:06;;;;;;;6.60;1.60;;;15.40;99.90;;;;;;5090319;28;20299;-71
2021/11/20 10:01:05;;;;;;;3.97;1.80;;;15.60;99.80;;;;;;5086911;28;20196;-71
2021/11/20 10:03:41;;;;;;;9.93;2.33;;;15.70;99.60;;;;;;5089010;28;20207;-71
2021/11/20 10:06:10;;;;;;;4.60;1.70;;;15.80;99.20;;;;;;5089274;28;20190;-71
2021/11/20 10:08:40;;;;;;;3.80;1.73;;;15.80;99.00;;;;;;5075697;28;20286;-71
2021/11/20 10:11:28;;;;;;;7.43;1.97;;;15.90;98.80;;;;;;5087170;28;20200;-71
2021/11/20 10:13:59;;;;;;;5.50;1.97;;;15.90;98.40;;;;;;5086573;28;20231;-71
2021/11/20 10:16:31;;;;;;;7.60;2.40;;;16.00;98.20;;;;;;5094651;28;20676;-71
2021/11/20 10:19:05;;;;;;;6.63;1.93;;;16.00;98.00;;;;;;5107096;28;20192;-71
2021/11/20 10:21:34;;;;;;;3.80;1.83;;;16.00;97.80;;;;;;5107476;28;20268;-71
2021/11/20 10:24:09;;;;;;;4.57;2.07;;;15.90;97.80;;;;;;5091715;28;21021;-71
2021/11/20 10:27:03;;;;;;;3.07;1.57;;;15.90;97.50;;;;;;5109345;28;20213;-71
2021/11/20 10:29:57;;;;;;;5.97;1.87;;;15.90;97.70;;;;;;5119918;27;20200;-71
2021/11/20 10:32:35;;;;;;;4.70;1.63;;;15.90;97.50;;;;;;5089862;28;20222;-71
2021/11/20 10:35:12;;;;;;;7.40;2.23;;;15.80;97.30;;;;;;5102857;28;20253;-71
2021/11/20 10:37:43;;;;;;;5.23;2.00;;;15.70;96.80;;;;;;5105775;27;20238;-71
2021/11/20 10:40:20;;;;;;;5.77;2.23;;;15.50;97.00;;;;;;5103340;27;20560;-71
2021/11/20 10:42:54;;;;;;;7.73;2.47;;;15.40;96.90;;;;;;5103177;28;20215;-71
2021/11/20 10:45:30;;;;;;;4.07;1.60;;;15.40;96.90;;;;;;5098406;28;20195;-71
2021/11/20 10:48:02;;;;;;;4.17;1.87;;;15.40;97.10;;;;;;5122291;27;20233;-71
2021/11/20 10:50:35;;;;;;;5.60;1.60;;;15.40;96.90;;;;;;5096045;28;20547;-71
2021/11/20 10:53:37;;;;;;;2.93;1.40;;;15.50;97.00;;;;;;5108982;28;20282;-71
2021/11/20 10:56:32;;;;;;;2.13;1.30;;;15.50;97.00;;;;;;5109025;28;20206;-71
2021/11/20 10:59:15;;;;;;;2.97;1.37;;;15.70;97.00;;;;;;5102490;28;20184;-68
2021/11/20 11:02:03;;;;;;;8.00;2.17;;;15.80;97.20;;;;;;5123470;27;20294;-69
2021/11/20 11:04:52;;;;;;;5.00;1.90;;;15.80;96.60;;;;;;5101868;28;20275;-74
2021/11/20 11:07:26;;;;;;;5.73;2.07;;;15.80;96.50;;;;;;5106968;28;20345;-69
2021/11/20 11:09:57;;;;;;;6.77;2.07;;;15.70;96.50;;;;;;5082263;28;20203;-68
2021/11/20 11:12:35;;;;;;;6.67;1.77;;;15.60;96.50;;;;;;5087378;28;20759;-71
2021/11/20 11:15:12;;;;;;;4.27;1.80;;;15.50;96.70;;;;;;5080660;28;20204;-68
2021/11/20 11:18:21;;;;;;;7.13;1.87;;;15.40;96.70;;;;;;5085501;28;20242;-71
2021/11/20 11:21:13;;;;;;;3.07;1.30;;;15.40;96.90;;;;;;5120172;27;20650;-69
2021/11/20 11:23:49;;;;;;;5.47;1.67;;;15.40;96.90;;;;;;5092385;28;20617;-71
2021/11/20 11:26:17;;;;;;;7.67;2.00;;;15.50;96.90;;;;;;5101908;28;20196;-71
2021/11/20 11:28:52;;;;;;;6.43;2.30;;;15.50;96.80;;;;;;5083412;28;20265;-70
2021/11/20 11:31:28;;;;;;;6.90;1.67;;;15.70;96.90;;;;;;5106842;28;20188;-67
2021/11/20 11:33:59;;;;;;;6.10;2.03;;;15.70;96.90;;;;;;5090764;28;20195;-67
2021/11/20 11:36:36;;;;;;;4.73;1.70;;;15.80;96.90;;;;;;5085922;28;20749;-68
2021/11/20 11:39:25;;;;;;;2.40;1.43;;;15.80;96.90;;;;;;5097191;28;20207;-67
2021/11/20 11:42:02;;;;;;;4.00;1.60;;;15.90;97.00;;;;;;5094078;28;20200;-68
2021/11/20 11:44:37;;;;;;;1.50;1.23;;;15.90;96.90;;;;;;5097248;28;20279;-68
2021/11/20 11:47:21;;;;;;;2.83;1.43;;;15.90;96.90;;;;;;5084846;28;20218;-69
2021/11/20 11:50:18;;;;;;;2.73;1.43;;;15.80;96.90;;;;;;5088027;28;20204;-68
2021/11/20 11:52:54;;;;;;;4.33;1.50;;;15.80;97.00;;;;;;5077851;28;20196;-68
2021/11/20 11:55:43;;;;;;;3.27;1.70;;;15.70;97.10;;;;;;5105348;28;20195;-69
2021/11/20 11:58:54;;;;;;;5.83;1.50;;;15.60;97.20;;;;;;5089700;28;20242;-68
2021/11/20 12:01:24;;;;;;;2.90;1.40;;;15.50;97.30;;;;;;5024095;28;20203;-70
2021/11/20 12:04:04;;;;;;;2.97;1.30;;;15.40;97.50;;;;;;5001999;28;20682;-66
2021/11/20 12:06:50;;;;;;;3.40;1.57;;;15.40;97.80;;;;;;5032227;28;20216;-67
2021/11/20 12:09:32;;;;;;;2.50;1.50;;;15.40;98.00;;;;;;5002037;28;20673;-67
2021/11/20 12:12:14;;;;;;;2.67;1.40;;;15.30;98.20;;;;;;5005096;28;20214;-68
2021/11/20 12:14:44;;;;;;;4.83;1.40;;;15.20;98.40;;;;;;4995751;28;20234;-68
2021/11/20 12:17:34;;;;;;;1.40;1.07;;;15.20;98.70;;;;;;5023084;28;20859;-68
2021/11/20 12:20:17;;;;;;;3.13;1.50;;;15.20;99.00;;;;;;5030431;28;20279;-68
2021/11/20 12:22:56;;;;;;;1.93;1.30;;;15.20;99.20;;;;;;5005849;28;20586;-71
2021/11/20 12:25:47;;;;;;;1.50;1.07;;;15.10;99.50;;;;;;4988617;28;20452;-69
2021/11/20 12:28:28;;;;;;;0.60;0.60;;;15.10;99.80;;;;;;5019502;28;20868;-69
2021/11/20 12:31:12;;;;;;;1.27;0.90;;;15.10;99.90;;;;;;5020945;28;20214;-68
2021/11/20 12:33:55;;;;;;;1.50;1.10;;;15.00;99.90;;;;;;5026998;28;20209;-68
2021/11/20 12:36:35;;;;;;;1.80;1.10;;;14.90;99.90;;;;;;5013774;28;20207;-68
2021/11/20 12:39:16;;;;;;;1.63;1.00;;;14.80;99.90;;;;;;5107043;28;20199;-68
2021/11/20 12:42:00;;;;;;;2.67;1.07;;;14.80;99.90;;;;;;5077623;28;20207;-68
2021/11/20 12:44:53;;;;;;;0.73;0.73;;;14.70;99.90;;;;;;5083202;28;20660;-67
2021/11/20 12:47:41;;;;;;;2.20;0.90;;;14.70;99.90;;;;;;5098477;28;20200;-67
2021/11/20 12:50:23;;;;;;;1.67;1.00;;;14.60;99.90;;;;;;5105357;28;20195;-67
2021/11/20 12:52:54;;;;;;;1.00;0.90;;;14.50;99.90;;;;;;5107489;28;20297;-67
2021/11/20 12:55:36;;;;;;;1.23;0.80;;;14.50;99.90;;;;;;5121419;27;20305;-68
2021/11/20 12:58:13;;;;;;;1.33;1.00;;;14.40;99.90;;;;;;5118206;27;20226;-67
2021/11/20 13:00:42;;;;;;;1.73;0.83;;;14.40;99.90;;;;;;5089017;28;20562;-67
2021/11/20 13:03:37;;;;;;;2.23;1.10;;;14.30;99.90;;;;;;5118288;28;20187;-67
2021/11/20 13:06:09;;;;;;;1.40;1.07;;;14.30;99.90;;;;;;5088474;28;20697;-66
2021/11/20 13:08:38;;;;;;;0.83;0.83;;;14.20;99.90;;;;;;5116998;27;20664;-67
2021/11/20 13:11:09;;;;;;;1.13;1.00;;;14.20;99.90;;;;;;5084054;28;20286;-67
2021/11/20 13:13:45;;;;;;;0.90;0.90;;;14.20;99.90;;;;;;5090230;28;20292;-67
2021/11/20 13:16:51;;;;;;;1.47;1.20;;;14.30;99.90;;;;;;5089230;28;20662;-67
2021/11/20 13:19:23;;;;;;;1.20;1.10;;;14.20;99.90;;;;;;5102351;28;20195;-67
2021/11/20 13:22:13;;;;;;;1.60;1.50;;;14.30;99.90;;;;;;5074558;28;20266;-67
2021/11/20 13:24:47;;;;;;;2.37;1.40;;;14.30;99.90;;;;;;5094077;28;20743;-67